createdAt,value
2023-04-16T00:02:21.837Z,87.44
2023-04-16T00:07:23.441Z,87.84
2023-04-16T00:12:25.339Z,88.64
2023-04-16T00:17:26.866Z,88.84
2023-04-16T00:22:28.367Z,88.70
2023-04-16T00:27:29.932Z,89.24
2023-04-16T00:32:31.409Z,89.30
2023-04-16T00:37:32.943Z,89.22
2023-04-16T00:42:37.094Z,88.68
2023-04-16T00:47:39.104Z,89.45
2023-04-16T00:52:40.964Z,89.20
2023-04-16T00:57:42.570Z,89.60
2023-04-16T01:02:44.442Z,89.57
2023-04-16T01:07:46.122Z,90.39
2023-04-16T01:12:47.623Z,91.16
2023-04-16T01:17:49.600Z,90.41
2023-04-16T01:22:51.480Z,89.98
2023-04-16T01:27:54.934Z,90.32
2023-04-16T01:32:57.927Z,90.13
2023-04-16T01:38:00.185Z,90.27
2023-04-16T01:43:02.186Z,90.05
2023-04-16T01:48:05.069Z,89.38
2023-04-16T01:53:06.633Z,89.70
2023-04-16T01:58:11.083Z,89.73
2023-04-16T02:03:13.450Z,89.37
2023-04-16T02:08:15.080Z,89.05
2023-04-16T02:13:17.044Z,89.42
2023-04-16T02:18:19.222Z,89.25
2023-04-16T02:23:21.181Z,89.39
2023-04-16T02:28:22.727Z,89.27
2023-04-16T02:33:26.443Z,89.26
2023-04-16T02:38:27.960Z,89.46
2023-04-16T02:43:29.980Z,89.50
2023-04-16T02:48:32.320Z,88.95
2023-04-16T02:53:34.023Z,88.90
2023-04-16T02:58:35.713Z,88.71
2023-04-16T03:03:37.201Z,88.91
2023-04-16T03:08:38.688Z,89.22
2023-04-16T03:13:40.197Z,89.21
2023-04-16T03:18:42.151Z,89.19
2023-04-16T03:23:43.639Z,88.97
2023-04-16T03:28:45.332Z,89.01
2023-04-16T03:33:46.867Z,88.90
2023-04-16T03:38:49.383Z,88.75
2023-04-16T03:43:50.915Z,88.78
2023-04-16T03:48:52.412Z,88.86
2023-04-16T03:53:53.914Z,88.60
2023-04-16T03:58:56.166Z,88.61
2023-04-16T04:03:58.637Z,88.71
2023-04-16T04:09:00.555Z,88.61
2023-04-16T04:14:02.317Z,88.40
2023-04-16T04:19:03.873Z,88.75
2023-04-16T04:24:05.532Z,88.88
2023-04-16T04:29:07.123Z,88.47
2023-04-16T04:34:09.314Z,88.20
2023-04-16T04:39:11.034Z,88.33
2023-04-16T04:44:13.282Z,88.06
2023-04-16T04:49:14.771Z,88.06
2023-04-16T04:54:16.797Z,88.13
2023-04-16T04:59:18.374Z,88.04
2023-04-16T05:04:19.895Z,87.70
2023-04-16T05:09:21.855Z,87.10
2023-04-16T05:14:23.575Z,86.48
2023-04-16T05:19:25.462Z,86.11
2023-04-16T05:24:26.946Z,85.61
2023-04-16T05:29:28.633Z,85.13
2023-04-16T05:34:30.790Z,84.28
2023-04-16T05:39:32.753Z,83.80
2023-04-16T05:44:34.721Z,83.17
2023-04-16T05:49:39.659Z,82.67
2023-04-16T05:54:41.173Z,82.09
2023-04-16T05:59:42.839Z,81.42
2023-04-16T06:04:44.351Z,80.43
2023-04-16T06:09:45.883Z,80.34
2023-04-16T06:14:47.397Z,79.71
2023-04-16T06:19:49.111Z,78.34
2023-04-16T06:24:50.673Z,77.10
2023-04-16T06:29:52.311Z,76.82
2023-04-16T06:34:53.892Z,76.31
2023-04-16T06:39:55.418Z,76.27
2023-04-16T06:44:57.054Z,75.64
2023-04-16T06:49:58.818Z,75.00
2023-04-16T06:55:00.459Z,75.09
2023-04-16T07:00:03.220Z,75.04
2023-04-16T07:05:05.766Z,74.66
2023-04-16T07:10:08.344Z,74.32
2023-04-16T07:15:10.580Z,74.23
2023-04-16T07:20:12.204Z,73.85
2023-04-16T07:25:13.891Z,74.20
2023-04-16T07:30:15.752Z,73.98
2023-04-16T07:35:17.441Z,73.37
2023-04-16T07:40:19.391Z,72.12
2023-04-16T07:45:21.422Z,71.62
2023-04-16T07:50:23.417Z,71.47
2023-04-16T07:55:25.069Z,71.56
2023-04-16T08:00:26.713Z,71.17
2023-04-16T08:05:28.474Z,71.46
2023-04-16T08:10:30.262Z,71.04
2023-04-16T08:15:31.967Z,71.25
2023-04-16T08:20:33.754Z,70.87
2023-04-16T08:25:35.686Z,70.37
2023-04-16T08:30:37.267Z,69.94
2023-04-16T08:35:38.820Z,69.72
2023-04-16T08:40:42.541Z,69.09
2023-04-16T08:45:44.589Z,68.97
2023-04-16T08:50:48.240Z,67.02
2023-04-16T08:55:51.436Z,66.10
2023-04-16T09:00:54.139Z,63.53
2023-04-16T09:05:59.212Z,62.85
2023-04-16T09:11:00.859Z,62.97
2023-04-16T09:16:03.790Z,63.60
2023-04-16T09:21:07.827Z,63.78
2023-04-16T09:26:09.315Z,63.00
2023-04-16T09:31:17.128Z,61.65
2023-04-16T09:36:23.610Z,60.32
2023-04-16T09:41:28.457Z,61.67
2023-04-16T09:46:40.908Z,60.28
2023-04-16T09:51:43.847Z,59.76
2023-04-16T09:56:47.022Z,60.42
2023-04-16T10:02:14.971Z,58.74
2023-04-16T10:07:17.096Z,58.17
2023-04-16T10:12:19.322Z,57.32
2023-04-16T10:17:21.904Z,57.39
2023-04-16T10:22:48.008Z,55.84
2023-04-16T10:27:50.651Z,56.62
2023-04-16T10:32:53.487Z,55.96
2023-04-16T10:37:58.217Z,54.90
2023-04-16T10:43:01.679Z,51.59
2023-04-16T10:48:10.095Z,50.18
2023-04-16T10:53:23.771Z,50.23
2023-04-16T10:58:31.013Z,47.17
2023-04-16T11:03:33.011Z,43.83
2023-04-16T11:08:38.839Z,38.95
2023-04-16T11:13:46.367Z,34.19
2023-04-16T11:18:51.768Z,29.09
2023-04-16T11:23:53.834Z,29.22
2023-04-16T11:28:57.299Z,30.03
2023-04-16T11:34:00.522Z,30.66
2023-04-16T11:39:04.237Z,31.38
2023-04-16T11:44:24.220Z,33.03
2023-04-16T11:49:32.465Z,35.93
2023-04-16T11:54:36.542Z,37.13
2023-04-16T11:59:38.317Z,36.22
2023-04-16T12:04:59.969Z,37.24
2023-04-16T12:10:08.754Z,38.83
2023-04-16T12:15:11.197Z,38.15
2023-04-16T12:20:15.466Z,38.56
2023-04-16T12:25:18.465Z,40.19
2023-04-16T12:30:22.916Z,41.18
2023-04-16T12:35:32.843Z,41.93
2023-04-16T12:40:34.677Z,40.94
2023-04-16T12:45:38.538Z,40.17
2023-04-16T12:50:40.329Z,37.49
2023-04-16T12:55:42.032Z,36.69
2023-04-16T13:00:44.137Z,36.68
2023-04-16T13:05:45.713Z,35.99
2023-04-16T13:10:47.493Z,37.36
2023-04-16T13:15:49.145Z,38.37
2023-04-16T13:20:51.185Z,36.90
2023-04-16T13:25:53.297Z,35.44
2023-04-16T13:30:54.992Z,35.07
2023-04-16T13:35:56.813Z,35.71
2023-04-16T13:40:58.569Z,36.90
2023-04-16T13:46:01.150Z,36.51
2023-04-16T13:51:02.966Z,37.00
2023-04-16T13:56:05.147Z,38.49
2023-04-16T14:01:07.381Z,39.94
2023-04-16T14:06:09.037Z,41.47
2023-04-16T14:11:12.121Z,40.26
2023-04-16T14:16:14.085Z,37.42
2023-04-16T14:21:17.010Z,34.85
2023-04-16T14:26:20.664Z,33.08
2023-04-16T14:31:22.465Z,31.54
2023-04-16T14:36:24.018Z,29.73
2023-04-16T14:41:27.234Z,28.44
2023-04-16T14:46:30.747Z,29.62
2023-04-16T14:51:32.800Z,30.85
2023-04-16T14:56:34.769Z,32.13
2023-04-16T15:01:39.721Z,33.71
2023-04-16T15:06:42.618Z,34.69
2023-04-16T15:11:44.231Z,35.94
2023-04-16T15:16:49.750Z,36.53
2023-04-16T15:21:53.085Z,36.51
2023-04-16T15:26:54.561Z,36.68
2023-04-16T15:31:56.293Z,37.26
2023-04-16T15:36:57.880Z,38.27
2023-04-16T15:42:02.213Z,38.95
2023-04-16T15:47:06.511Z,41.17
2023-04-16T15:52:08.173Z,41.32
2023-04-16T15:57:09.738Z,41.72
2023-04-16T16:02:11.316Z,42.17
2023-04-16T16:07:15.593Z,42.82
2023-04-16T16:12:17.357Z,43.72
2023-04-16T16:17:20.459Z,44.13
2023-04-16T16:22:24.014Z,45.31
2023-04-16T16:27:25.838Z,46.12
2023-04-16T16:32:27.524Z,46.80
2023-04-16T16:37:29.766Z,47.66
2023-04-16T16:42:32.356Z,48.53
2023-04-16T16:47:34.024Z,49.01
2023-04-16T16:52:36.183Z,49.95
2023-04-16T16:57:40.828Z,51.51
2023-04-16T17:02:42.453Z,52.81
2023-04-16T17:07:44.680Z,54.32
2023-04-16T17:12:51.199Z,56.70
2023-04-16T17:17:52.863Z,55.40
2023-04-16T17:22:54.527Z,55.41
2023-04-16T17:27:56.287Z,55.33
2023-04-16T17:32:58.222Z,57.01
2023-04-16T17:38:00.358Z,57.16
2023-04-16T17:43:02.230Z,58.32
2023-04-16T17:48:04.735Z,60.78
2023-04-16T17:53:06.478Z,59.88
2023-04-16T17:58:08.271Z,60.81
2023-04-16T18:03:11.793Z,63.79
2023-04-16T18:08:13.417Z,63.13
2023-04-16T18:13:14.926Z,63.73
2023-04-16T18:18:16.744Z,62.76
2023-04-16T18:23:18.297Z,62.99
2023-04-16T18:28:19.847Z,64.58
2023-04-16T18:33:44.432Z,66.70
2023-04-16T18:38:57.008Z,64.09
2023-04-16T18:44:02.376Z,68.08
2023-04-16T18:49:03.891Z,66.75
2023-04-16T18:54:05.609Z,65.40
2023-04-16T18:59:07.130Z,65.91
2023-04-16T19:04:08.673Z,67.26
2023-04-16T19:09:11.562Z,66.31
2023-04-16T19:14:13.509Z,67.04
2023-04-16T19:19:15.021Z,66.75
2023-04-16T19:24:16.627Z,69.58
2023-04-16T19:29:18.199Z,69.70
2023-04-16T19:34:19.694Z,69.18
2023-04-16T19:39:21.550Z,70.88
2023-04-16T19:44:23.342Z,69.08
2023-04-16T19:49:28.069Z,68.73
2023-04-16T19:54:29.718Z,68.58
2023-04-16T19:59:32.305Z,70.17
2023-04-16T20:04:34.760Z,71.86
2023-04-16T20:09:36.357Z,69.25
2023-04-16T20:14:37.906Z,70.67
2023-04-16T20:19:39.408Z,69.58
2023-04-16T20:24:42.081Z,69.46
2023-04-16T20:29:43.759Z,69.06
2023-04-16T20:34:45.331Z,69.33
2023-04-16T20:39:50.011Z,69.80
2023-04-16T20:44:56.622Z,69.61
2023-04-16T20:50:01.854Z,70.92
2023-04-16T20:55:03.869Z,70.51
2023-04-16T21:00:09.917Z,70.78
2023-04-16T21:05:14.142Z,71.54
2023-04-16T21:10:20.406Z,71.42
2023-04-16T21:15:22.460Z,72.73
2023-04-16T21:20:23.956Z,72.43
2023-04-16T21:25:25.873Z,72.41
2023-04-16T21:30:27.662Z,72.11
2023-04-16T21:35:31.940Z,72.53
2023-04-16T21:40:33.635Z,72.55
2023-04-16T21:45:35.533Z,72.78
2023-04-16T21:50:37.157Z,72.78
2023-04-16T21:55:40.732Z,73.34
2023-04-16T22:00:42.641Z,74.33
2023-04-16T22:05:45.951Z,73.89
2023-04-16T22:10:47.461Z,73.73
2023-04-16T22:15:49.080Z,74.09
2023-04-16T22:20:54.770Z,74.32
2023-04-16T22:25:57.106Z,74.43
2023-04-16T22:30:58.616Z,74.68
2023-04-16T22:36:00.574Z,76.69
2023-04-16T22:41:02.425Z,76.97
2023-04-16T22:46:06.700Z,76.78
2023-04-16T22:51:09.617Z,76.94
2023-04-16T22:56:12.320Z,76.24
2023-04-16T23:01:13.895Z,77.36
2023-04-16T23:06:15.812Z,76.98
2023-04-16T23:11:17.320Z,77.59
2023-04-16T23:16:19.289Z,77.77
2023-04-16T23:21:20.825Z,77.62
2023-04-16T23:26:22.371Z,78.36
2023-04-16T23:31:24.010Z,77.57
2023-04-16T23:36:27.353Z,77.62
2023-04-16T23:41:28.878Z,77.74
2023-04-16T23:46:30.607Z,77.93
2023-04-16T23:51:32.238Z,78.25
2023-04-16T23:56:34.054Z,78.64
